Ensenada, Mexico

8:25 AM PDT on June 24, 2017 (GMT -0700)
PROTECCION CIVIL BC (ENSENADA) | | Change Station

Elev 69 ft 31.87 °N, 116.62 °W | Updated 10 minutes ago

Mostly Cloudy
Mostly Cloudy
67.9 °F
Feels Like 67.9 °F
N
1.0
Wind Variable Wind from SW
Gusts 4.0 mph

Today
High -- | Low -- °F
--% Chance of Precip.
Yesterday
High -- | Low -- °F
Precip. -- in
Pressure 29.94 in
Visibility 1.0 miles
Clouds Overcast 600 ft
Dew Point 63 °F
Humidity 85%
Rainfall 0.00 in
Snow Depth Not available.
5:42 AM 7:55 PM
New Moon, 0% visible
METAR MMTJ 241454Z 00000KT 1SM BR OVC006 17/16 A2994 RMK SLP136 52011 900 8/6//
Pressure 29.94 in
Visibility 1.0 miles
Clouds Overcast 600 ft
Dew Point 63 °F
Humidity 85%
Rainfall 0.00 in
Snow Depth Not available.
5:42 AM 7:55 PM
New Moon, 0% visible
METAR MMTJ 241454Z 00000KT 1SM BR OVC006 17/16 A2994 RMK SLP136 52011 900 8/6//

Get Severe Weather Alerts

Thanks for signing up!

Be on the lookout for a verification email in your inbox.

You'll start receiving the daily forecast at 6 AM.

×

10-Day Weather Forecast

No radar image for this location.
×

Almanac

Astronomy

Jun. 24, 2017 Rise Set
Actual Time
Civil Twilight
Nautical Twilight
Astronomical Twilight
Moon
Length of Visible Light
Length of Day
Tomorrow will be .
, % of the Moon is Illuminated

Today's Extremes

Country Highs Country Lows

Community

WunderPhotos

Category 6

Welcome to Category 6. This is the collective home for Weather Underground's featured writeups by Dr. Jeff Masters (right), Bob Henson (left), Chris Burt, and other regular contributors.

Nearby

Air Quality

  Air Quality AQ Index Pollutant
Not available.

Snow Depth

Station Depth Elevation

Earthquake Activity

City Distance Mag. Time & Date
Minimum magnitude displayed is 2.5.

Coastal Water Temperatures

Place Temperature

Stations

Nearby Weather Stations

Station Location Temp. Windchill Dew Point Humidity Wind Precip. Elev Updated Type